DLH2RX EDDM-EHAM
Flight info
| Callsign | DLH2RX |
|---|---|
| Flight time | N/A |
| Altitude | 36000 |
| Route | GIVMI6Q GIVMI Y101 IBAGA DCT MASEK DCT MAPOX DCT NORKU NORKU2A |
| Aircraft | A321/M-SDE3FGHIRWY/LB1 |
Departure
| Time | N/A |
|---|---|
| Airport | Munich Airport (EDDM) |
Arrival
| Time | 2026-04-29 00:10 |
|---|---|
| Airport | Amsterdam Airport Schiphol (EHAM) |
| Time | Latitude | Longitude | Altitude | Speed | Heading |
|---|---|---|---|---|---|
| 2026-04-28 23:11 | 49.36153 | 10.95515 | 27911 ft | 437 kts | 336° |
| 2026-04-28 23:11 | 49.38925 | 10.93701 | 28371 ft | 430 kts | 327° |
| 2026-04-28 23:12 | 49.41441 | 10.91310 | 28833 ft | 423 kts | 320° |
| 2026-04-28 23:12 | 49.43844 | 10.88720 | 29311 ft | 421 kts | 320° |
| 2026-04-28 23:12 | 49.46238 | 10.86152 | 29830 ft | 418 kts | 321° |
| 2026-04-28 23:12 | 49.48626 | 10.83599 | 30263 ft | 418 kts | 320° |
| 2026-04-28 23:13 | 49.51010 | 10.81058 | 30646 ft | 416 kts | 321° |
| 2026-04-28 23:13 | 49.53385 | 10.78533 | 31015 ft | 415 kts | 321° |
| 2026-04-28 23:13 | 49.55756 | 10.76015 | 31401 ft | 413 kts | 321° |
| 2026-04-28 23:13 | 49.58114 | 10.73505 | 31796 ft | 411 kts | 321° |
| 2026-04-28 23:14 | 49.60454 | 10.70999 | 32193 ft | 409 kts | 321° |
| 2026-04-28 23:14 | 49.62784 | 10.68494 | 32602 ft | 407 kts | 321° |
| 2026-04-28 23:14 | 49.65100 | 10.66001 | 32977 ft | 405 kts | 321° |
| 2026-04-28 23:14 | 49.67405 | 10.63519 | 33366 ft | 403 kts | 321° |
| 2026-04-28 23:15 | 49.69701 | 10.61042 | 33751 ft | 401 kts | 321° |
| 2026-04-28 23:15 | 49.71985 | 10.58576 | 34135 ft | 401 kts | 321° |
| 2026-04-28 23:15 | 49.74280 | 10.56099 | 34315 ft | 404 kts | 322° |
| 2026-04-28 23:15 | 49.76623 | 10.53676 | 34512 ft | 406 kts | 323° |
| 2026-04-28 23:16 | 49.79024 | 10.51349 | 34732 ft | 408 kts | 325° |
| 2026-04-28 23:16 | 49.81461 | 10.49076 | 34945 ft | 409 kts | 326° |
| 2026-04-28 23:16 | 49.83909 | 10.46817 | 35155 ft | 410 kts | 326° |
| 2026-04-28 23:16 | 49.86364 | 10.44540 | 35354 ft | 412 kts | 326° |
| 2026-04-28 23:17 | 49.88815 | 10.42235 | 35553 ft | 413 kts | 326° |
| 2026-04-28 23:17 | 49.91265 | 10.39901 | 35761 ft | 414 kts | 325° |
| 2026-04-28 23:17 | 49.93716 | 10.37547 | 35972 ft | 415 kts | 325° |
| 2026-04-28 23:17 | 49.96168 | 10.35181 | 36182 ft | 416 kts | 326° |
| 2026-04-28 23:18 | 50.01122 | 10.30378 | 36233 ft | 422 kts | 326° |
| 2026-04-28 23:18 | 50.06114 | 10.25538 | 36242 ft | 423 kts | 326° |
| 2026-04-28 23:19 | 50.11110 | 10.20705 | 36241 ft | 423 kts | 326° |
| 2026-04-28 23:19 | 50.16112 | 10.15864 | 36247 ft | 423 kts | 326° |
| 2026-04-28 23:20 | 50.21108 | 10.11000 | 36252 ft | 424 kts | 327° |
| 2026-04-28 23:20 | 50.26122 | 10.06112 | 36246 ft | 426 kts | 327° |
| 2026-04-28 23:21 | 50.31147 | 10.01195 | 36246 ft | 427 kts | 327° |
| 2026-04-28 23:21 | 50.36183 | 9.96248 | 36252 ft | 428 kts | 327° |
| 2026-04-28 23:22 | 50.41227 | 9.91287 | 36260 ft | 428 kts | 327° |
| 2026-04-28 23:22 | 50.46273 | 9.86311 | 36284 ft | 429 kts | 327° |
| 2026-04-28 23:23 | 50.51331 | 9.81316 | 36272 ft | 430 kts | 327° |
| 2026-04-28 23:23 | 50.56396 | 9.76293 | 36251 ft | 431 kts | 327° |
| 2026-04-28 23:24 | 50.61481 | 9.71246 | 36252 ft | 433 kts | 327° |
| 2026-04-28 23:24 | 50.66574 | 9.66171 | 36262 ft | 434 kts | 327° |
| 2026-04-28 23:25 | 50.71642 | 9.60994 | 36273 ft | 434 kts | 322° |
| 2026-04-28 23:25 | 50.75871 | 9.54225 | 36271 ft | 435 kts | 310° |
| 2026-04-28 23:26 | 50.79712 | 9.46843 | 36287 ft | 435 kts | 310° |
| 2026-04-28 23:26 | 50.83555 | 9.39448 | 36274 ft | 435 kts | 310° |
| 2026-04-28 23:27 | 50.87403 | 9.32023 | 36281 ft | 437 kts | 310° |
| 2026-04-28 23:27 | 50.91248 | 9.24567 | 36286 ft | 437 kts | 310° |
| 2026-04-28 23:28 | 50.95098 | 9.17097 | 36293 ft | 438 kts | 310° |
| 2026-04-28 23:28 | 50.98955 | 9.09609 | 36313 ft | 439 kts | 310° |
| 2026-04-28 23:29 | 51.02813 | 9.02097 | 36307 ft | 439 kts | 310° |
| 2026-04-28 23:29 | 51.06669 | 8.94559 | 36306 ft | 440 kts | 310° |
| 2026-04-28 23:30 | 51.10517 | 8.86993 | 36314 ft | 440 kts | 310° |
| 2026-04-28 23:30 | 51.14469 | 8.79566 | 36316 ft | 439 kts | 315° |
| 2026-04-28 23:31 | 51.18728 | 8.72585 | 36317 ft | 440 kts | 315° |
| 2026-04-28 23:31 | 51.22988 | 8.65586 | 36322 ft | 440 kts | 315° |
| 2026-04-28 23:32 | 51.27245 | 8.58571 | 36305 ft | 440 kts | 315° |
| 2026-04-28 23:32 | 51.31506 | 8.51531 | 36313 ft | 441 kts | 315° |
| 2026-04-28 23:33 | 51.35768 | 8.44464 | 36320 ft | 442 kts | 315° |
| 2026-04-28 23:33 | 51.39999 | 8.37417 | 36311 ft | 442 kts | 315° |
| 2026-04-28 23:34 | 51.44265 | 8.30302 | 36320 ft | 443 kts | 315° |
| 2026-04-28 23:34 | 51.48526 | 8.23171 | 36327 ft | 443 kts | 315° |
| 2026-04-28 23:35 | 51.52779 | 8.16020 | 36320 ft | 443 kts | 315° |
| 2026-04-28 23:35 | 51.57041 | 8.08839 | 36317 ft | 444 kts | 315° |
| 2026-04-28 23:36 | 51.61302 | 8.01638 | 36317 ft | 445 kts | 315° |
| 2026-04-28 23:36 | 51.65567 | 7.94422 | 36322 ft | 445 kts | 315° |
| 2026-04-28 23:37 | 51.69838 | 7.87195 | 36331 ft | 445 kts | 315° |
| 2026-04-28 23:37 | 51.74100 | 7.79943 | 36337 ft | 446 kts | 315° |
| 2026-04-28 23:38 | 51.78359 | 7.72667 | 36322 ft | 446 kts | 315° |
| 2026-04-28 23:38 | 51.82617 | 7.65366 | 36331 ft | 446 kts | 315° |
| 2026-04-28 23:39 | 51.86879 | 7.58057 | 36347 ft | 447 kts | 315° |
| 2026-04-28 23:39 | 51.91136 | 7.50728 | 36352 ft | 447 kts | 315° |
| 2026-04-28 23:40 | 51.95385 | 7.43374 | 35406 ft | 448 kts | 315° |
| 2026-04-28 23:40 | 51.97512 | 7.39691 | 34407 ft | 447 kts | 315° |
| 2026-04-28 23:40 | 51.99630 | 7.36018 | 33410 ft | 444 kts | 316° |
| 2026-04-28 23:41 | 52.01703 | 7.32410 | 32946 ft | 431 kts | 316° |
| 2026-04-28 23:41 | 52.03735 | 7.28864 | 32440 ft | 427 kts | 316° |
| 2026-04-28 23:41 | 52.05722 | 7.25399 | 31986 ft | 422 kts | 316° |
| 2026-04-28 23:41 | 52.07711 | 7.21931 | 31530 ft | 417 kts | 317° |
| 2026-04-28 23:42 | 52.09675 | 7.18502 | 31070 ft | 412 kts | 317° |
| 2026-04-28 23:42 | 52.11616 | 7.15108 | 30617 ft | 407 kts | 317° |
| 2026-04-28 23:42 | 52.13533 | 7.11748 | 30129 ft | 403 kts | 317° |
| 2026-04-28 23:42 | 52.15422 | 7.08430 | 29692 ft | 396 kts | 317° |
| 2026-04-28 23:43 | 52.17280 | 7.05160 | 29271 ft | 390 kts | 317° |
| 2026-04-28 23:43 | 52.19107 | 7.01938 | 28865 ft | 384 kts | 317° |
| 2026-04-28 23:43 | 52.20908 | 6.98760 | 28464 ft | 379 kts | 317° |
| 2026-04-28 23:43 | 52.22660 | 6.95591 | 28074 ft | 375 kts | 316° |
| 2026-04-28 23:44 | 52.24361 | 6.92319 | 27697 ft | 381 kts | 314° |
| 2026-04-28 23:44 | 52.26042 | 6.88946 | 27308 ft | 384 kts | 314° |
| 2026-04-28 23:44 | 52.27707 | 6.85539 | 26917 ft | 383 kts | 313° |
| 2026-04-28 23:44 | 52.29363 | 6.82136 | 26532 ft | 382 kts | 313° |
| 2026-04-28 23:45 | 52.31012 | 6.78753 | 26136 ft | 380 kts | 314° |
| 2026-04-28 23:45 | 52.32660 | 6.75399 | 25760 ft | 378 kts | 314° |
| 2026-04-28 23:45 | 52.34307 | 6.72073 | 25374 ft | 375 kts | 314° |
| 2026-04-28 23:45 | 52.35416 | 6.69842 | 25116 ft | 373 kts | 314° |
| 2026-04-28 23:46 | 52.37050 | 6.66560 | 24740 ft | 371 kts | 314° |
| 2026-04-28 23:46 | 52.38652 | 6.63335 | 24375 ft | 369 kts | 314° |
| 2026-04-28 23:46 | 52.40264 | 6.60083 | 24004 ft | 367 kts | 314° |
| 2026-04-28 23:46 | 52.41864 | 6.56848 | 23585 ft | 364 kts | 314° |
| 2026-04-28 23:47 | 52.43456 | 6.53631 | 23211 ft | 362 kts | 314° |
| 2026-04-28 23:47 | 52.45037 | 6.50353 | 22836 ft | 362 kts | 309° |
| 2026-04-28 23:47 | 52.46248 | 6.46780 | 22458 ft | 366 kts | 297° |
| 2026-04-28 23:47 | 52.46995 | 6.42771 | 22091 ft | 371 kts | 284° |
| 2026-04-28 23:48 | 52.47276 | 6.38558 | 21715 ft | 371 kts | 278° |
| 2026-04-28 23:48 | 52.47479 | 6.34351 | 21337 ft | 369 kts | 278° |
| 2026-04-28 23:48 | 52.47685 | 6.30175 | 20962 ft | 366 kts | 278° |
| 2026-04-28 23:48 | 52.47893 | 6.26029 | 20589 ft | 363 kts | 278° |
| 2026-04-28 23:49 | 52.48100 | 6.21913 | 20217 ft | 361 kts | 278° |
| 2026-04-28 23:49 | 52.48304 | 6.17826 | 19856 ft | 358 kts | 278° |
| 2026-04-28 23:49 | 52.48504 | 6.13769 | 19492 ft | 356 kts | 278° |
| 2026-04-28 23:49 | 52.48697 | 6.09737 | 19131 ft | 353 kts | 277° |
| 2026-04-28 23:50 | 52.48885 | 6.05732 | 18775 ft | 351 kts | 277° |
| 2026-04-28 23:50 | 52.49071 | 6.01759 | 18381 ft | 348 kts | 277° |
| 2026-04-28 23:50 | 52.49257 | 5.97813 | 17995 ft | 346 kts | 277° |
| 2026-04-28 23:50 | 52.49444 | 5.93876 | 17667 ft | 346 kts | 277° |
| 2026-04-28 23:51 | 52.49630 | 5.89952 | 17318 ft | 344 kts | 277° |
| 2026-04-28 23:51 | 52.49813 | 5.86054 | 16969 ft | 342 kts | 277° |
| 2026-04-28 23:51 | 52.49993 | 5.82176 | 16621 ft | 339 kts | 277° |
| 2026-04-28 23:51 | 52.50170 | 5.78324 | 16274 ft | 337 kts | 277° |
| 2026-04-28 23:52 | 52.50343 | 5.74501 | 15934 ft | 335 kts | 277° |
| 2026-04-28 23:52 | 52.50513 | 5.70697 | 15593 ft | 333 kts | 277° |
| 2026-04-28 23:52 | 52.50681 | 5.66912 | 15253 ft | 332 kts | 277° |
| 2026-04-28 23:52 | 52.50847 | 5.63150 | 14917 ft | 330 kts | 276° |
| 2026-04-28 23:53 | 52.50870 | 5.59401 | 14568 ft | 328 kts | 266° |
| 2026-04-28 23:53 | 52.50404 | 5.55743 | 14255 ft | 327 kts | 252° |
| 2026-04-28 23:53 | 52.49454 | 5.52367 | 14063 ft | 328 kts | 240° |
| 2026-04-28 23:53 | 52.48265 | 5.49165 | 13845 ft | 328 kts | 239° |
| 2026-04-28 23:54 | 52.47079 | 5.45947 | 13636 ft | 330 kts | 239° |
| 2026-04-28 23:54 | 52.45895 | 5.42727 | 13429 ft | 329 kts | 239° |
| 2026-04-28 23:54 | 52.44717 | 5.39525 | 13228 ft | 327 kts | 239° |
| 2026-04-28 23:54 | 52.43540 | 5.36327 | 12782 ft | 330 kts | 239° |
| 2026-04-28 23:55 | 52.42362 | 5.33139 | 12487 ft | 325 kts | 239° |
| 2026-04-28 23:55 | 52.41187 | 5.29971 | 12286 ft | 323 kts | 239° |
| 2026-04-28 23:55 | 52.40019 | 5.26826 | 12090 ft | 322 kts | 238° |
| 2026-04-28 23:55 | 52.38860 | 5.23700 | 11882 ft | 321 kts | 238° |
| 2026-04-28 23:56 | 52.37699 | 5.20571 | 11675 ft | 321 kts | 238° |
| 2026-04-28 23:56 | 52.36537 | 5.17447 | 11474 ft | 322 kts | 238° |
| 2026-04-28 23:56 | 52.35378 | 5.14333 | 11251 ft | 320 kts | 238° |
| 2026-04-28 23:56 | 52.34291 | 5.11181 | 11047 ft | 317 kts | 246° |
| 2026-04-28 23:57 | 52.33620 | 5.07757 | 10847 ft | 317 kts | 260° |
| 2026-04-28 23:57 | 52.33429 | 5.04183 | 10650 ft | 316 kts | 271° |
| 2026-04-28 23:57 | 52.33414 | 5.00584 | 10450 ft | 317 kts | 270° |
| 2026-04-28 23:57 | 52.33391 | 4.96988 | 10251 ft | 315 kts | 270° |
| 2026-04-28 23:58 | 52.33366 | 4.93448 | 9997 ft | 307 kts | 270° |
| 2026-04-28 23:58 | 52.33342 | 4.89976 | 9747 ft | 305 kts | 270° |
| 2026-04-28 23:58 | 52.33318 | 4.86533 | 9429 ft | 302 kts | 270° |
| 2026-04-28 23:58 | 52.33291 | 4.83101 | 9140 ft | 303 kts | 270° |
| 2026-04-28 23:59 | 52.33262 | 4.79673 | 8841 ft | 301 kts | 270° |
| 2026-04-28 23:59 | 52.33231 | 4.76254 | 8544 ft | 301 kts | 270° |
| 2026-04-28 23:59 | 52.33198 | 4.72837 | 8246 ft | 300 kts | 270° |
| 2026-04-28 23:59 | 52.33165 | 4.69486 | 7950 ft | 297 kts | 270° |
| 2026-04-29 00:00 | 52.33132 | 4.66108 | 7647 ft | 297 kts | 270° |
| 2026-04-29 00:00 | 52.33099 | 4.62744 | 7350 ft | 295 kts | 270° |
| 2026-04-29 00:00 | 52.33065 | 4.59389 | 7044 ft | 295 kts | 270° |
| 2026-04-29 00:00 | 52.33029 | 4.56039 | 6737 ft | 295 kts | 270° |
| 2026-04-29 00:01 | 52.32990 | 4.52710 | 6451 ft | 291 kts | 270° |
| 2026-04-29 00:01 | 52.32953 | 4.49521 | 6198 ft | 285 kts | 270° |
| 2026-04-29 00:01 | 52.32917 | 4.46240 | 5933 ft | 279 kts | 270° |
| 2026-04-29 00:01 | 52.32800 | 4.43113 | 5683 ft | 273 kts | 257° |
| 2026-04-29 00:02 | 52.32075 | 4.40318 | 5442 ft | 263 kts | 233° |
| 2026-04-29 00:02 | 52.30817 | 4.38288 | 5185 ft | 249 kts | 210° |
| 2026-04-29 00:02 | 52.29283 | 4.37210 | 4931 ft | 233 kts | 187° |
| 2026-04-29 00:02 | 52.27739 | 4.36939 | 4691 ft | 216 kts | 178° |
| 2026-04-29 00:03 | 52.26286 | 4.36769 | 4425 ft | 203 kts | 174° |
| 2026-04-29 00:03 | 52.24960 | 4.37090 | 4174 ft | 185 kts | 154° |
| 2026-04-29 00:03 | 52.23856 | 4.38009 | 3946 ft | 174 kts | 137° |
| 2026-04-29 00:03 | 52.23005 | 4.39348 | 3770 ft | 168 kts | 123° |
| 2026-04-29 00:04 | 52.22432 | 4.40965 | 3619 ft | 163 kts | 111° |
| 2026-04-29 00:04 | 52.21993 | 4.42664 | 3491 ft | 159 kts | 106° |
| 2026-04-29 00:04 | 52.21696 | 4.44351 | 3356 ft | 153 kts | 103° |
| 2026-04-29 00:04 | 52.21424 | 4.46013 | 3229 ft | 151 kts | 103° |
| 2026-04-29 00:05 | 52.21157 | 4.47660 | 3119 ft | 150 kts | 103° |
| 2026-04-29 00:05 | 52.20907 | 4.49300 | 3052 ft | 149 kts | 97° |
| 2026-04-29 00:05 | 52.20804 | 4.50968 | 3021 ft | 148 kts | 94° |
| 2026-04-29 00:05 | 52.20846 | 4.52641 | 2949 ft | 149 kts | 77° |
| 2026-04-29 00:06 | 52.21344 | 4.54144 | 2794 ft | 152 kts | 63° |
| 2026-04-29 00:06 | 52.21909 | 4.55594 | 2590 ft | 151 kts | 63° |
| 2026-04-29 00:06 | 52.22460 | 4.57012 | 2424 ft | 141 kts | 64° |
| 2026-04-29 00:06 | 52.22970 | 4.58326 | 2225 ft | 134 kts | 64° |
| 2026-04-29 00:07 | 52.23462 | 4.59598 | 2042 ft | 131 kts | 65° |
| 2026-04-29 00:07 | 52.23946 | 4.60851 | 1863 ft | 130 kts | 64° |
| 2026-04-29 00:07 | 52.24428 | 4.62097 | 1687 ft | 130 kts | 64° |
| 2026-04-29 00:07 | 52.24908 | 4.63341 | 1494 ft | 129 kts | 63° |
| 2026-04-29 00:08 | 52.25387 | 4.64581 | 1331 ft | 129 kts | 63° |
| 2026-04-29 00:08 | 52.25866 | 4.65822 | 1157 ft | 130 kts | 62° |
| 2026-04-29 00:08 | 52.26346 | 4.67067 | 970 ft | 129 kts | 63° |
| 2026-04-29 00:08 | 52.26823 | 4.68303 | 802 ft | 129 kts | 60° |
| 2026-04-29 00:09 | 52.27304 | 4.69556 | 643 ft | 132 kts | 60° |
| 2026-04-29 00:09 | 52.27789 | 4.70806 | 431 ft | 131 kts | 58° |
| 2026-04-29 00:09 | 52.28268 | 4.72054 | 283 ft | 126 kts | 58° |
| 2026-04-29 00:09 | 52.28727 | 4.73235 | 127 ft | 123 kts | 59° |
| 2026-04-29 00:10 | 52.29179 | 4.74412 | 41 ft | 119 kts | 60° |
| 2026-04-29 00:10 | 52.29601 | 4.75522 | 1 ft | 109 kts | 59° |
| 2026-04-29 00:10 | 52.29949 | 4.76427 | -3 ft | 71 kts | 58° |
| 2026-04-29 00:10 | 52.30100 | 4.76818 | -1 ft | 19 kts | 56° |
| 2026-04-29 00:11 | 52.30175 | 4.77004 | -3 ft | 21 kts | 57° |
| 2026-04-29 00:11 | 52.30255 | 4.77203 | -4 ft | 22 kts | 53° |
| 2026-04-29 00:11 | 52.30440 | 4.77418 | -2 ft | 9 kts | 18° |
| 2026-04-29 00:12 | 52.30502 | 4.77384 | -1 ft | 11 kts | 328° |
| 2026-04-29 00:12 | 52.30546 | 4.77339 | -1 ft | 0 kts | 328° |
| 2026-04-29 00:12 | 52.30560 | 4.77323 | -1 ft | 6 kts | 320° |
| 2026-04-29 00:12 | 52.30568 | 4.77234 | -1 ft | 11 kts | 249° |
| 2026-04-29 00:13 | 52.30515 | 4.77096 | -1 ft | 17 kts | 236° |
| 2026-04-29 00:13 | 52.30438 | 4.76900 | -1 ft | 23 kts | 238° |
| 2026-04-29 00:13 | 52.30349 | 4.76667 | -1 ft | 20 kts | 238° |
| 2026-04-29 00:13 | 52.30383 | 4.76490 | -1 ft | 20 kts | 327° |
| 2026-04-29 00:14 | 52.30486 | 4.76386 | -1 ft | 2 kts | 328° |
| 2026-04-29 00:14 | 52.30495 | 4.76358 | -1 ft | 3 kts | 276° |
| 2026-04-29 00:14 | 52.30484 | 4.76313 | -1 ft | 3 kts | 240° |
| 2026-04-29 00:14 | 52.30478 | 4.76295 | -1 ft | 1 kts | 239° |
| 2026-04-29 00:15 | 52.30477 | 4.76292 | -1 ft | 0 kts | 239° |